Time;durP1;ratioP1;P1;durP2;ratioP2;P2;SDS_P1;SDS_P2;PMS_P1;PMS_P2;Temp;Humidity;BMP_temperature;BMP_pressure;BME280_temperature;BME280_humidity;BME280_pressure;Samples;Min_cycle;Max_cycle;Signal;HPM_P1;HPM_P2
2024/01/13 00:01:15;;;;;;;16.50;10.47;;;;;;;;;;773129;180;920130;-69
2024/01/13 00:03:41;;;;;;;16.40;10.48;;;;;;;;;;779826;180;918301;-69
2024/01/13 00:06:07;;;;;;;18.23;11.33;;;;;;;;;;774269;180;916209;-70
2024/01/13 00:08:32;;;;;;;17.60;9.30;;;;;;;;;;771242;179;913865;-69
2024/01/13 00:10:59;;;;;;;15.55;10.32;;;;;;;;;;776257;177;914501;-69
2024/01/13 00:13:25;;;;;;;15.70;9.40;;;;;;;;;;761579;183;914191;-70
2024/01/13 00:15:51;;;;;;;13.30;8.03;;;;;;;;;;762700;179;919572;-69
2024/01/13 00:18:18;;;;;;;16.65;9.90;;;;;;;;;;775221;179;922391;-68
2024/01/13 00:20:42;;;;;;;16.03;9.37;;;;;;;;;;779449;180;918976;-69
2024/01/13 00:23:08;;;;;;;21.93;10.50;;;;;;;;;;774058;179;920605;-68
2024/01/13 00:25:34;;;;;;;13.90;8.77;;;;;;;;;;761419;182;919368;-69
2024/01/13 00:28:00;;;;;;;20.13;10.50;;;;;;;;;;778704;179;919152;-69
2024/01/13 00:30:26;;;;;;;16.37;10.17;;;;;;;;;;772893;179;922255;-69
2024/01/13 00:32:51;;;;;;;20.50;10.37;;;;;;;;;;772438;179;919058;-69
2024/01/13 00:35:17;;;;;;;17.40;10.07;;;;;;;;;;774711;179;922543;-70
2024/01/13 00:37:44;;;;;;;17.23;10.20;;;;;;;;;;774115;179;919169;-68
2024/01/13 00:40:09;;;;;;;16.33;10.90;;;;;;;;;;771753;180;919182;-70
2024/01/13 00:42:35;;;;;;;16.67;10.53;;;;;;;;;;773702;180;918148;-68
2024/01/13 00:45:01;;;;;;;17.45;10.73;;;;;;;;;;780984;180;926709;-69
2024/01/13 00:47:27;;;;;;;18.80;11.57;;;;;;;;;;773899;179;920555;-69
2024/01/13 00:49:53;;;;;;;19.50;10.52;;;;;;;;;;775643;180;918967;-69
2024/01/13 00:52:19;;;;;;;13.90;9.57;;;;;;;;;;778228;180;919631;-68
2024/01/13 00:54:45;;;;;;;16.43;9.17;;;;;;;;;;770838;180;918360;-69
2024/01/13 00:57:11;;;;;;;13.93;8.37;;;;;;;;;;774370;179;920254;-69
2024/01/13 00:59:37;;;;;;;21.27;10.40;;;;;;;;;;779925;179;919538;-69
2024/01/13 01:02:03;;;;;;;17.27;9.97;;;;;;;;;;775279;179;919420;-68
2024/01/13 01:04:29;;;;;;;18.27;10.83;;;;;;;;;;770107;179;919973;-69
2024/01/13 01:06:54;;;;;;;21.47;11.30;;;;;;;;;;780860;180;883297;-68
2024/01/13 01:09:21;;;;;;;18.93;11.30;;;;;;;;;;780007;179;918339;-68
2024/01/13 01:11:46;;;;;;;19.62;11.23;;;;;;;;;;774520;179;921340;-69
2024/01/13 01:14:12;;;;;;;19.30;11.23;;;;;;;;;;775866;179;919439;-70
2024/01/13 01:16:38;;;;;;;19.15;10.25;;;;;;;;;;783908;179;918900;-69
2024/01/13 01:19:04;;;;;;;20.27;12.30;;;;;;;;;;776027;179;1019642;-69
2024/01/13 01:21:29;;;;;;;19.53;12.43;;;;;;;;;;775836;179;919224;-69
2024/01/13 01:23:55;;;;;;;16.03;10.97;;;;;;;;;;777952;180;919836;-69
2024/01/13 01:26:21;;;;;;;17.27;11.53;;;;;;;;;;774684;179;921950;-68
2024/01/13 01:28:47;;;;;;;20.20;11.97;;;;;;;;;;766984;179;917807;-69
2024/01/13 01:31:13;;;;;;;20.37;11.70;;;;;;;;;;766992;180;925374;-70
2024/01/13 01:33:39;;;;;;;17.30;10.83;;;;;;;;;;773738;179;917759;-70
2024/01/13 01:36:05;;;;;;;22.50;12.60;;;;;;;;;;774957;179;919183;-69
2024/01/13 01:38:31;;;;;;;17.10;10.97;;;;;;;;;;775034;179;918952;-69
2024/01/13 01:40:56;;;;;;;18.47;11.33;;;;;;;;;;775836;179;918624;-69
2024/01/13 01:43:22;;;;;;;17.40;9.87;;;;;;;;;;775246;179;919830;-69
2024/01/13 01:45:48;;;;;;;24.17;11.23;;;;;;;;;;773197;179;919184;-68
2024/01/13 01:48:14;;;;;;;27.67;13.27;;;;;;;;;;782344;179;817261;-69
2024/01/13 01:50:40;;;;;;;18.65;10.23;;;;;;;;;;772241;180;919043;-68
2024/01/13 01:53:06;;;;;;;20.63;11.33;;;;;;;;;;765175;180;1021952;-70
2024/01/13 01:55:31;;;;;;;18.87;10.80;;;;;;;;;;780180;180;1021473;-69
2024/01/13 01:57:57;;;;;;;14.13;10.27;;;;;;;;;;770194;180;920157;-68
2024/01/13 02:00:23;;;;;;;17.70;10.10;;;;;;;;;;768650;180;918809;-69
2024/01/13 02:02:49;;;;;;;19.07;12.30;;;;;;;;;;771872;179;1019552;-67
2024/01/13 02:05:15;;;;;;;18.77;9.50;;;;;;;;;;772369;180;926004;-69
2024/01/13 02:07:41;;;;;;;17.03;9.60;;;;;;;;;;768039;180;921233;-69
2024/01/13 02:10:07;;;;;;;15.30;9.43;;;;;;;;;;767399;179;920625;-70
2024/01/13 02:12:33;;;;;;;19.40;9.80;;;;;;;;;;781160;179;910773;-69
2024/01/13 02:14:58;;;;;;;16.23;9.70;;;;;;;;;;775961;179;913891;-69
2024/01/13 02:17:24;;;;;;;20.00;11.47;;;;;;;;;;775200;179;914595;-70
2024/01/13 02:19:50;;;;;;;18.53;10.63;;;;;;;;;;777078;180;919209;-69
2024/01/13 02:22:16;;;;;;;20.37;11.23;;;;;;;;;;773073;179;919024;-68
2024/01/13 02:24:42;;;;;;;20.77;10.23;;;;;;;;;;777095;180;918821;-68
2024/01/13 02:27:08;;;;;;;16.97;8.93;;;;;;;;;;773072;179;919607;-69
2024/01/13 02:29:33;;;;;;;20.10;10.57;;;;;;;;;;775039;179;918829;-69
2024/01/13 02:31:59;;;;;;;21.63;9.83;;;;;;;;;;774778;179;919792;-69
2024/01/13 02:34:25;;;;;;;17.20;9.90;;;;;;;;;;771408;180;918670;-68
2024/01/13 02:36:51;;;;;;;16.77;10.10;;;;;;;;;;774944;179;919050;-68
2024/01/13 02:39:17;;;;;;;15.93;9.17;;;;;;;;;;769949;180;919543;-68
2024/01/13 02:41:43;;;;;;;15.13;8.83;;;;;;;;;;774706;179;918269;-69
2024/01/13 02:44:08;;;;;;;13.20;8.20;;;;;;;;;;781876;179;921348;-69
2024/01/13 02:46:34;;;;;;;16.00;9.03;;;;;;;;;;773417;179;920481;-68
2024/01/13 02:49:00;;;;;;;12.33;9.17;;;;;;;;;;773209;177;915689;-70
2024/01/13 02:51:27;;;;;;;15.30;9.90;;;;;;;;;;764110;181;919731;-69
2024/01/13 02:53:52;;;;;;;18.13;9.00;;;;;;;;;;775206;180;918977;-68
2024/01/13 02:56:18;;;;;;;13.85;8.35;;;;;;;;;;776253;180;921793;-69
2024/01/13 02:58:44;;;;;;;19.92;8.70;;;;;;;;;;777731;180;918609;-69
2024/01/13 03:01:10;;;;;;;13.57;7.60;;;;;;;;;;767467;180;918376;-69
2024/01/13 03:03:36;;;;;;;13.90;8.60;;;;;;;;;;766520;180;918057;-68
2024/01/13 03:06:03;;;;;;;11.90;7.73;;;;;;;;;;775727;180;919130;-69
2024/01/13 03:08:28;;;;;;;15.47;9.23;;;;;;;;;;775183;180;918553;-69
2024/01/13 03:10:53;;;;;;;13.48;8.63;;;;;;;;;;774047;180;1021581;-68
2024/01/13 03:13:19;;;;;;;13.00;7.20;;;;;;;;;;766525;180;920302;-69
2024/01/13 03:15:45;;;;;;;15.70;8.77;;;;;;;;;;775811;180;930275;-70
2024/01/13 03:18:11;;;;;;;12.30;7.63;;;;;;;;;;775139;177;918492;-69
2024/01/13 03:20:37;;;;;;;15.40;9.47;;;;;;;;;;770867;179;919340;-70
2024/01/13 03:23:03;;;;;;;19.30;10.00;;;;;;;;;;776528;180;919353;-69
2024/01/13 03:25:29;;;;;;;16.77;10.50;;;;;;;;;;770907;179;952929;-69
2024/01/13 03:27:55;;;;;;;14.40;10.53;;;;;;;;;;773615;179;926983;-69
2024/01/13 03:30:20;;;;;;;25.70;10.63;;;;;;;;;;773390;179;917854;-68
2024/01/13 03:32:46;;;;;;;17.83;9.03;;;;;;;;;;776438;180;1019015;-69
2024/01/13 03:35:12;;;;;;;18.33;11.73;;;;;;;;;;775369;179;919082;-69
2024/01/13 03:37:38;;;;;;;18.10;9.67;;;;;;;;;;775587;179;1021212;-68
2024/01/13 03:40:04;;;;;;;16.73;10.10;;;;;;;;;;779228;180;919308;-69
2024/01/13 03:42:30;;;;;;;14.50;8.90;;;;;;;;;;775487;180;919407;-69
2024/01/13 03:44:56;;;;;;;15.97;9.07;;;;;;;;;;767722;180;919396;-69
2024/01/13 03:47:22;;;;;;;16.03;10.07;;;;;;;;;;771704;179;918737;-69
2024/01/13 03:49:48;;;;;;;15.33;8.80;;;;;;;;;;769703;180;919023;-70
2024/01/13 03:52:13;;;;;;;15.82;9.30;;;;;;;;;;774010;180;921376;-69
2024/01/13 03:54:39;;;;;;;13.33;8.90;;;;;;;;;;774172;180;918694;-69
2024/01/13 03:57:05;;;;;;;12.30;7.30;;;;;;;;;;779573;178;916094;-69
2024/01/13 03:59:31;;;;;;;13.68;9.35;;;;;;;;;;770364;179;916575;-69
2024/01/13 04:01:57;;;;;;;16.23;9.03;;;;;;;;;;773880;177;915127;-68
2024/01/13 04:04:23;;;;;;;10.95;6.95;;;;;;;;;;768122;181;916959;-69
2024/01/13 04:06:48;;;;;;;16.93;9.87;;;;;;;;;;767858;180;919077;-70
2024/01/13 04:09:14;;;;;;;13.63;7.83;;;;;;;;;;775319;179;917692;-69
2024/01/13 04:11:40;;;;;;;14.10;9.10;;;;;;;;;;781118;180;918927;-70
2024/01/13 04:14:06;;;;;;;14.40;7.60;;;;;;;;;;759046;181;918605;-69
2024/01/13 04:16:32;;;;;;;15.73;8.20;;;;;;;;;;765561;180;919348;-69
2024/01/13 04:18:58;;;;;;;12.83;7.20;;;;;;;;;;774531;180;919497;-70
2024/01/13 04:21:23;;;;;;;13.80;7.90;;;;;;;;;;774997;180;919507;-69
2024/01/13 04:23:49;;;;;;;14.60;7.73;;;;;;;;;;775721;180;919768;-69
2024/01/13 04:26:15;;;;;;;12.40;7.03;;;;;;;;;;776012;180;918618;-69
2024/01/13 04:28:41;;;;;;;11.80;7.57;;;;;;;;;;775464;180;917512;-69
2024/01/13 04:31:07;;;;;;;16.45;8.38;;;;;;;;;;775940;177;919085;-70
2024/01/13 04:33:34;;;;;;;9.33;6.07;;;;;;;;;;768466;178;918578;-68
2024/01/13 04:35:59;;;;;;;11.97;6.37;;;;;;;;;;778560;180;919318;-69
2024/01/13 04:38:24;;;;;;;12.37;7.63;;;;;;;;;;773218;179;919594;-69
2024/01/13 04:40:50;;;;;;;11.30;6.30;;;;;;;;;;776576;179;919783;-69
2024/01/13 04:43:16;;;;;;;11.87;7.80;;;;;;;;;;781998;180;920456;-68
2024/01/13 04:45:42;;;;;;;8.83;6.60;;;;;;;;;;775787;179;919563;-69
2024/01/13 04:48:08;;;;;;;9.63;6.10;;;;;;;;;;776110;180;919753;-68
2024/01/13 04:50:34;;;;;;;11.33;7.47;;;;;;;;;;776807;180;924770;-69
2024/01/13 04:52:59;;;;;;;13.40;7.90;;;;;;;;;;775109;179;918877;-68
2024/01/13 04:55:25;;;;;;;11.70;6.73;;;;;;;;;;775397;177;919322;-68
2024/01/13 04:57:51;;;;;;;12.83;7.70;;;;;;;;;;773343;180;919975;-67
2024/01/13 05:00:17;;;;;;;14.10;7.57;;;;;;;;;;765378;181;918101;-69
2024/01/13 05:02:43;;;;;;;14.63;7.00;;;;;;;;;;769132;180;920231;-69
2024/01/13 05:05:09;;;;;;;12.37;8.03;;;;;;;;;;778233;179;919175;-69
2024/01/13 05:07:36;;;;;;;12.07;7.30;;;;;;;;;;780440;179;918321;-69
2024/01/13 05:10:00;;;;;;;12.87;6.50;;;;;;;;;;770504;180;919051;-69
2024/01/13 05:12:26;;;;;;;12.60;6.37;;;;;;;;;;767474;177;919203;-68
2024/01/13 05:14:52;;;;;;;9.20;6.20;;;;;;;;;;768283;183;919954;-69
2024/01/13 05:17:18;;;;;;;10.43;6.47;;;;;;;;;;767662;180;919145;-69
2024/01/13 05:19:44;;;;;;;7.67;5.63;;;;;;;;;;769376;180;919662;-68
2024/01/13 05:22:10;;;;;;;7.97;5.23;;;;;;;;;;774529;180;920458;-68
2024/01/13 05:24:35;;;;;;;9.63;6.30;;;;;;;;;;766058;180;919140;-69
2024/01/13 05:27:02;;;;;;;8.10;6.33;;;;;;;;;;776514;178;919235;-69
2024/01/13 05:29:27;;;;;;;10.80;5.95;;;;;;;;;;771264;180;919643;-69
2024/01/13 05:31:53;;;;;;;8.40;5.40;;;;;;;;;;776889;180;920121;-68
2024/01/13 05:34:19;;;;;;;11.57;6.27;;;;;;;;;;773865;179;919359;-68
2024/01/13 05:36:45;;;;;;;10.13;6.50;;;;;;;;;;768667;180;920126;-69
2024/01/13 05:39:10;;;;;;;9.30;6.80;;;;;;;;;;778412;180;919310;-68
2024/01/13 05:41:36;;;;;;;9.00;6.13;;;;;;;;;;776642;180;920297;-69
2024/01/13 05:44:02;;;;;;;9.67;5.43;;;;;;;;;;775998;178;916919;-68
2024/01/13 05:46:28;;;;;;;12.30;6.00;;;;;;;;;;780463;179;915082;-69
2024/01/13 05:48:54;;;;;;;9.07;5.70;;;;;;;;;;773528;179;919679;-69
2024/01/13 05:51:20;;;;;;;8.17;5.63;;;;;;;;;;774605;179;918717;-69
2024/01/13 05:53:46;;;;;;;10.57;6.07;;;;;;;;;;774493;178;919546;-68
2024/01/13 05:56:12;;;;;;;8.70;6.47;;;;;;;;;;778141;180;917739;-69
2024/01/13 05:58:39;;;;;;;8.67;4.90;;;;;;;;;;777141;180;921507;-69
2024/01/13 06:01:03;;;;;;;9.80;5.30;;;;;;;;;;782976;179;1022963;-69
2024/01/13 06:03:29;;;;;;;12.23;6.30;;;;;;;;;;780236;180;918224;-69
2024/01/13 06:05:55;;;;;;;10.23;6.73;;;;;;;;;;775995;180;1007923;-69
2024/01/13 06:08:21;;;;;;;8.57;5.80;;;;;;;;;;773810;179;913867;-69
2024/01/13 06:10:47;;;;;;;12.03;6.40;;;;;;;;;;780660;177;862913;-68
2024/01/13 06:13:12;;;;;;;9.10;6.20;;;;;;;;;;763678;179;918690;-69
2024/01/13 06:15:38;;;;;;;10.17;6.57;;;;;;;;;;761319;180;914939;-70
2024/01/13 06:18:04;;;;;;;9.03;5.63;;;;;;;;;;777238;179;919048;-69
2024/01/13 06:20:31;;;;;;;9.40;5.43;;;;;;;;;;763971;182;906427;-71
2024/01/13 06:22:56;;;;;;;11.60;6.30;;;;;;;;;;772836;180;918786;-70
2024/01/13 06:25:22;;;;;;;11.27;6.63;;;;;;;;;;775392;179;918122;-69
2024/01/13 06:27:48;;;;;;;7.13;4.93;;;;;;;;;;773253;180;947026;-69
2024/01/13 06:30:14;;;;;;;9.93;6.27;;;;;;;;;;768817;179;1169363;-70
2024/01/13 06:32:39;;;;;;;10.10;5.83;;;;;;;;;;758916;182;943835;-70
2024/01/13 06:35:06;;;;;;;11.43;6.57;;;;;;;;;;779161;179;1019839;-69
2024/01/13 06:37:31;;;;;;;9.20;5.53;;;;;;;;;;776105;180;914485;-70
2024/01/13 06:39:57;;;;;;;8.23;5.47;;;;;;;;;;765568;177;946496;-69
2024/01/13 06:42:23;;;;;;;8.60;7.00;;;;;;;;;;772247;180;926860;-69
2024/01/13 06:44:49;;;;;;;12.00;6.20;;;;;;;;;;773024;179;960484;-69
2024/01/13 06:47:15;;;;;;;14.60;6.77;;;;;;;;;;772347;179;917862;-69
2024/01/13 06:49:41;;;;;;;10.03;5.90;;;;;;;;;;766011;180;920980;-68
2024/01/13 06:52:09;;;;;;;10.93;6.67;;;;;;;;;;774200;179;1020773;-68
2024/01/13 06:54:33;;;;;;;10.38;5.93;;;;;;;;;;774750;177;998931;-69
2024/01/13 06:56:59;;;;;;;6.93;5.43;;;;;;;;;;776576;179;928460;-70
2024/01/13 06:59:25;;;;;;;12.03;6.13;;;;;;;;;;777986;179;921422;-69
2024/01/13 07:01:51;;;;;;;14.17;6.20;;;;;;;;;;774330;179;934847;-69
2024/01/13 07:04:17;;;;;;;9.00;6.40;;;;;;;;;;769544;179;1021013;-70
2024/01/13 07:06:42;;;;;;;11.67;6.47;;;;;;;;;;780357;179;917466;-69
2024/01/13 07:09:08;;;;;;;9.27;7.13;;;;;;;;;;772626;180;918056;-71
2024/01/13 07:11:34;;;;;;;9.73;6.00;;;;;;;;;;770851;179;925722;-70
2024/01/13 07:14:00;;;;;;;13.40;6.27;;;;;;;;;;778286;179;918717;-69
2024/01/13 07:16:26;;;;;;;9.63;5.90;;;;;;;;;;776216;179;933062;-70
2024/01/13 07:18:52;;;;;;;7.90;5.90;;;;;;;;;;772695;180;933314;-70
2024/01/13 07:21:17;;;;;;;8.60;7.10;;;;;;;;;;773992;179;919401;-70
2024/01/13 07:23:43;;;;;;;10.88;5.57;;;;;;;;;;772197;180;920438;-70
2024/01/13 07:26:09;;;;;;;14.73;7.50;;;;;;;;;;770197;179;944098;-70
2024/01/13 07:28:35;;;;;;;10.63;6.28;;;;;;;;;;775204;180;918152;-70
2024/01/13 07:31:01;;;;;;;10.57;7.43;;;;;;;;;;775270;180;1036683;-70
2024/01/13 07:33:27;;;;;;;12.77;7.20;;;;;;;;;;774730;179;933997;-69
2024/01/13 07:35:53;;;;;;;9.75;6.55;;;;;;;;;;777494;180;918461;-70
2024/01/13 07:38:19;;;;;;;8.20;5.13;;;;;;;;;;777609;180;917236;-69
2024/01/13 07:40:45;;;;;;;15.17;6.77;;;;;;;;;;771978;179;924123;-70
2024/01/13 07:43:11;;;;;;;8.47;5.30;;;;;;;;;;774811;179;929364;-70
2024/01/13 07:45:37;;;;;;;9.50;5.57;;;;;;;;;;768521;179;918678;-71
2024/01/13 07:48:03;;;;;;;9.30;5.93;;;;;;;;;;769312;180;873040;-70
2024/01/13 07:50:29;;;;;;;8.97;6.33;;;;;;;;;;780841;178;714701;-71
2024/01/13 07:52:55;;;;;;;11.20;7.10;;;;;;;;;;775995;180;621767;-71
2024/01/13 07:55:21;;;;;;;11.70;7.10;;;;;;;;;;778122;180;922285;-70
2024/01/13 07:57:47;;;;;;;10.00;5.80;;;;;;;;;;777082;179;914920;-69
2024/01/13 08:00:13;;;;;;;16.00;7.20;;;;;;;;;;773669;179;953272;-71
2024/01/13 08:02:39;;;;;;;10.60;6.43;;;;;;;;;;782443;180;917591;-71
2024/01/13 08:05:06;;;;;;;11.60;6.23;;;;;;;;;;770475;180;919947;-70
2024/01/13 08:07:32;;;;;;;9.57;6.17;;;;;;;;;;775515;179;914165;-70
2024/01/13 08:09:57;;;;;;;9.33;6.50;;;;;;;;;;775035;179;919734;-69
2024/01/13 08:12:23;;;;;;;12.03;5.70;;;;;;;;;;764471;181;964582;-70
2024/01/13 08:14:49;;;;;;;13.20;7.33;;;;;;;;;;780872;179;626542;-70
2024/01/13 08:17:15;;;;;;;10.40;6.33;;;;;;;;;;773442;179;633337;-70
2024/01/13 08:19:41;;;;;;;13.37;7.07;;;;;;;;;;784956;179;628856;-70
2024/01/13 08:22:07;;;;;;;10.27;7.10;;;;;;;;;;780058;179;634977;-71
2024/01/13 08:24:33;;;;;;;14.27;7.70;;;;;;;;;;780097;180;618284;-69
2024/01/13 08:26:59;;;;;;;11.90;6.80;;;;;;;;;;781700;178;615957;-70
2024/01/13 08:29:25;;;;;;;11.20;7.67;;;;;;;;;;765707;181;631243;-71
2024/01/13 08:31:51;;;;;;;9.13;6.12;;;;;;;;;;775513;179;645060;-71
2024/01/13 08:34:16;;;;;;;12.00;7.33;;;;;;;;;;778059;179;917258;-70
2024/01/13 08:36:43;;;;;;;9.73;5.97;;;;;;;;;;771752;179;920335;-70
2024/01/13 08:39:08;;;;;;;8.33;5.77;;;;;;;;;;781619;177;629496;-70
2024/01/13 08:41:34;;;;;;;12.73;6.97;;;;;;;;;;774591;180;920064;-70
2024/01/13 08:44:00;;;;;;;8.40;5.20;;;;;;;;;;774928;180;919007;-70
2024/01/13 08:46:26;;;;;;;9.43;6.00;;;;;;;;;;770616;180;918880;-70
2024/01/13 08:48:52;;;;;;;10.20;5.63;;;;;;;;;;773500;180;919539;-71
2024/01/13 08:51:18;;;;;;;6.73;4.80;;;;;;;;;;781040;180;905999;-70
2024/01/13 08:53:44;;;;;;;8.67;4.90;;;;;;;;;;761620;181;919015;-69
2024/01/13 08:56:10;;;;;;;8.20;5.67;;;;;;;;;;768883;180;1021798;-71
2024/01/13 08:58:37;;;;;;;8.10;5.13;;;;;;;;;;771502;180;915918;-69
2024/01/13 09:01:02;;;;;;;10.73;6.03;;;;;;;;;;766087;182;917470;-70
2024/01/13 09:03:28;;;;;;;9.03;5.63;;;;;;;;;;766724;180;919727;-71
2024/01/13 09:05:54;;;;;;;10.18;6.32;;;;;;;;;;768815;180;919746;-70
2024/01/13 09:08:20;;;;;;;11.40;6.57;;;;;;;;;;780630;179;916020;-70
2024/01/13 09:10:46;;;;;;;10.13;5.90;;;;;;;;;;771757;179;918794;-70
2024/01/13 09:13:12;;;;;;;11.90;6.60;;;;;;;;;;774383;179;1021864;-70
2024/01/13 09:15:37;;;;;;;11.03;6.30;;;;;;;;;;778299;180;920915;-71
2024/01/13 09:18:04;;;;;;;7.53;4.83;;;;;;;;;;774963;179;918888;-71
2024/01/13 09:20:29;;;;;;;7.93;4.73;;;;;;;;;;776370;179;922598;-70
2024/01/13 09:22:55;;;;;;;9.10;5.50;;;;;;;;;;779944;179;918456;-70
2024/01/13 09:25:21;;;;;;;7.10;4.30;;;;;;;;;;768711;180;917439;-71
2024/01/13 09:27:47;;;;;;;9.13;4.93;;;;;;;;;;774620;179;1051458;-71
2024/01/13 09:30:15;;;;;;;8.93;5.00;;;;;;;;;;773025;179;916014;-70
2024/01/13 09:32:39;;;;;;;9.43;5.20;;;;;;;;;;780383;179;919116;-71
2024/01/13 09:35:05;;;;;;;10.27;5.60;;;;;;;;;;774339;180;918931;-70
2024/01/13 09:37:31;;;;;;;9.43;5.60;;;;;;;;;;776625;179;919449;-70
2024/01/13 09:39:57;;;;;;;9.60;4.37;;;;;;;;;;781504;180;918562;-71
2024/01/13 09:42:33;;;;;;;6.50;4.50;;;;;;;;;;776815;180;919933;-71
2024/01/13 09:44:59;;;;;;;8.40;5.10;;;;;;;;;;773595;180;923625;-72
2024/01/13 09:47:25;;;;;;;8.83;4.30;;;;;;;;;;769806;180;1021700;-71
2024/01/13 09:49:51;;;;;;;9.30;4.93;;;;;;;;;;779562;179;920015;-73
2024/01/13 09:52:17;;;;;;;6.73;4.83;;;;;;;;;;771295;179;919377;-71
2024/01/13 09:54:43;;;;;;;6.05;4.03;;;;;;;;;;772340;179;1021669;-72
2024/01/13 09:57:08;;;;;;;7.27;4.00;;;;;;;;;;778555;180;919475;-71
2024/01/13 09:59:36;;;;;;;6.80;4.27;;;;;;;;;;770274;180;919131;-72
2024/01/13 10:02:00;;;;;;;6.80;4.80;;;;;;;;;;770802;179;919095;-71
2024/01/13 10:04:26;;;;;;;7.33;3.80;;;;;;;;;;774669;180;918941;-71
2024/01/13 10:06:52;;;;;;;8.70;4.63;;;;;;;;;;773165;180;919896;-75
2024/01/13 10:09:18;;;;;;;6.37;4.10;;;;;;;;;;775806;180;918964;-72
2024/01/13 10:11:44;;;;;;;7.03;3.83;;;;;;;;;;771786;180;919298;-72
2024/01/13 10:14:09;;;;;;;5.13;3.80;;;;;;;;;;778686;180;918569;-72
2024/01/13 10:16:35;;;;;;;6.80;4.00;;;;;;;;;;772887;180;918600;-73
2024/01/13 10:19:02;;;;;;;4.27;3.37;;;;;;;;;;773025;179;916701;-71
2024/01/13 10:21:28;;;;;;;10.30;4.70;;;;;;;;;;780516;180;918646;-72
2024/01/13 10:23:54;;;;;;;5.72;3.65;;;;;;;;;;775914;179;922081;-71
2024/01/13 10:26:19;;;;;;;6.47;4.60;;;;;;;;;;775238;180;918298;-71
2024/01/13 10:28:45;;;;;;;6.22;4.28;;;;;;;;;;772629;180;918090;-71
2024/01/13 10:31:11;;;;;;;4.27;3.30;;;;;;;;;;777829;178;919937;-72
2024/01/13 10:33:37;;;;;;;7.17;4.40;;;;;;;;;;766130;178;917475;-72
2024/01/13 10:36:04;;;;;;;6.53;3.40;;;;;;;;;;761132;179;918689;-72
2024/01/13 10:38:29;;;;;;;5.73;3.73;;;;;;;;;;778823;179;1050990;-72
2024/01/13 10:40:55;;;;;;;7.03;4.60;;;;;;;;;;761704;181;941979;-72
2024/01/13 10:43:20;;;;;;;5.37;3.87;;;;;;;;;;771406;180;920104;-74
2024/01/13 10:45:46;;;;;;;5.83;4.00;;;;;;;;;;778835;179;918925;-72
2024/01/13 10:48:13;;;;;;;6.30;3.37;;;;;;;;;;773157;180;1020687;-71
2024/01/13 10:50:39;;;;;;;7.03;4.10;;;;;;;;;;769184;180;918422;-73
2024/01/13 10:53:07;;;;;;;6.13;3.10;;;;;;;;;;779858;179;919701;-72
2024/01/13 10:55:33;;;;;;;6.80;4.10;;;;;;;;;;774613;179;989843;-72
2024/01/13 10:57:59;;;;;;;4.63;3.03;;;;;;;;;;774971;179;925720;-71
2024/01/13 11:00:25;;;;;;;8.03;4.70;;;;;;;;;;773874;180;919153;-73
2024/01/13 11:02:51;;;;;;;3.83;3.30;;;;;;;;;;774169;180;917870;-73
2024/01/13 11:05:17;;;;;;;6.20;4.30;;;;;;;;;;767452;178;1020836;-72
2024/01/13 11:07:42;;;;;;;5.20;3.23;;;;;;;;;;761147;183;918819;-71
2024/01/13 11:10:08;;;;;;;5.10;3.47;;;;;;;;;;777373;180;915790;-73
2024/01/13 11:12:34;;;;;;;6.00;4.07;;;;;;;;;;776844;180;906652;-72
2024/01/13 11:15:03;;;;;;;5.33;3.63;;;;;;;;;;774220;179;1021753;-72
2024/01/13 11:17:27;;;;;;;3.40;2.70;;;;;;;;;;772944;180;911302;-71
2024/01/13 11:19:52;;;;;;;4.30;2.80;;;;;;;;;;776023;179;922557;-72
2024/01/13 11:22:24;;;;;;;5.82;3.15;;;;;;;;;;771522;180;919052;-71
2024/01/13 11:24:50;;;;;;;7.47;3.70;;;;;;;;;;769994;180;918962;-71
2024/01/13 11:27:16;;;;;;;7.03;3.73;;;;;;;;;;781826;179;918854;-71
2024/01/13 11:29:42;;;;;;;6.07;4.30;;;;;;;;;;772279;179;921476;-71
2024/01/13 11:32:08;;;;;;;7.10;4.83;;;;;;;;;;769970;180;919157;-71
2024/01/13 11:34:33;;;;;;;4.93;3.57;;;;;;;;;;779726;180;921683;-71
2024/01/13 11:36:59;;;;;;;9.10;4.30;;;;;;;;;;775803;178;919301;-72
2024/01/13 11:39:25;;;;;;;6.40;4.37;;;;;;;;;;756044;183;919385;-70
2024/01/13 11:41:51;;;;;;;12.80;5.47;;;;;;;;;;771199;177;924959;-71
2024/01/13 11:44:23;;;;;;;9.47;5.10;;;;;;;;;;768390;179;916734;-71
2024/01/13 11:46:55;;;;;;;7.12;4.55;;;;;;;;;;772227;179;915879;-70
2024/01/13 11:49:21;;;;;;;8.67;5.43;;;;;;;;;;774854;179;915214;-71
2024/01/13 11:51:52;;;;;;;6.90;4.85;;;;;;;;;;773979;180;916504;-70
2024/01/13 11:54:18;;;;;;;8.43;5.00;;;;;;;;;;778399;179;915627;-71
2024/01/13 11:56:44;;;;;;;8.60;4.33;;;;;;;;;;772158;179;915238;-71
2024/01/13 11:59:10;;;;;;;9.43;5.33;;;;;;;;;;777467;179;917190;-70
2024/01/13 12:01:36;;;;;;;8.10;4.47;;;;;;;;;;776077;180;914364;-71
2024/01/13 12:04:02;;;;;;;7.10;4.60;;;;;;;;;;770595;180;917842;-71
2024/01/13 12:06:28;;;;;;;8.83;4.63;;;;;;;;;;758279;180;944298;-70
2024/01/13 12:08:53;;;;;;;7.03;4.87;;;;;;;;;;780966;180;917758;-70
2024/01/13 12:11:19;;;;;;;7.50;4.33;;;;;;;;;;772084;180;916221;-70
2024/01/13 12:13:45;;;;;;;8.93;4.77;;;;;;;;;;774091;180;913743;-71
2024/01/13 12:16:11;;;;;;;8.87;5.10;;;;;;;;;;771651;180;925744;-71
2024/01/13 12:18:37;;;;;;;7.33;4.73;;;;;;;;;;778831;180;918932;-71
2024/01/13 12:21:03;;;;;;;8.10;4.63;;;;;;;;;;773517;177;923586;-71
2024/01/13 12:23:28;;;;;;;6.97;5.30;;;;;;;;;;760148;183;913774;-71
2024/01/13 12:25:54;;;;;;;5.50;4.40;;;;;;;;;;771019;180;925673;-72
2024/01/13 12:28:20;;;;;;;6.22;5.62;;;;;;;;;;767524;180;918289;-71
2024/01/13 12:30:48;;;;;;;7.00;4.23;;;;;;;;;;771412;180;917937;-71
2024/01/13 12:33:12;;;;;;;10.77;5.53;;;;;;;;;;779932;180;876603;-71
2024/01/13 12:35:38;;;;;;;8.27;5.73;;;;;;;;;;773160;180;916979;-71
2024/01/13 12:38:06;;;;;;;7.90;4.37;;;;;;;;;;773062;180;920004;-70
2024/01/13 12:40:30;;;;;;;6.93;4.70;;;;;;;;;;773947;180;921710;-70
2024/01/13 12:42:57;;;;;;;5.70;3.92;;;;;;;;;;770513;179;918842;-70
2024/01/13 12:45:22;;;;;;;8.00;5.00;;;;;;;;;;776912;176;920882;-70
2024/01/13 12:47:48;;;;;;;6.93;4.67;;;;;;;;;;772639;180;918492;-70
2024/01/13 12:50:14;;;;;;;7.97;5.10;;;;;;;;;;776895;180;919405;-70
2024/01/13 12:52:41;;;;;;;8.57;5.40;;;;;;;;;;770865;178;919195;-71
2024/01/13 12:55:07;;;;;;;7.63;5.10;;;;;;;;;;774408;179;919736;-71
2024/01/13 12:57:32;;;;;;;7.20;4.60;;;;;;;;;;780867;179;932441;-70
2024/01/13 12:59:58;;;;;;;6.63;5.67;;;;;;;;;;776167;179;916214;-71
2024/01/13 13:02:24;;;;;;;5.13;4.23;;;;;;;;;;775023;179;920832;-71
2024/01/13 13:04:50;;;;;;;7.00;4.70;;;;;;;;;;776880;180;920375;-70
2024/01/13 13:07:16;;;;;;;5.80;4.10;;;;;;;;;;774462;179;918970;-72
2024/01/13 13:09:42;;;;;;;4.93;3.67;;;;;;;;;;773845;179;919049;-71
2024/01/13 13:12:07;;;;;;;9.67;4.10;;;;;;;;;;774861;180;921786;-72
2024/01/13 13:14:33;;;;;;;4.60;3.70;;;;;;;;;;775232;179;915644;-70
2024/01/13 13:16:59;;;;;;;5.20;4.37;;;;;;;;;;773738;179;1120016;-72
2024/01/13 13:19:25;;;;;;;5.63;4.53;;;;;;;;;;775845;179;919165;-71
2024/01/13 13:21:52;;;;;;;6.33;4.17;;;;;;;;;;776480;180;919155;-69
2024/01/13 13:24:17;;;;;;;7.00;4.67;;;;;;;;;;773074;179;1095403;-71
2024/01/13 13:26:43;;;;;;;5.97;4.20;;;;;;;;;;773647;179;1018014;-71
2024/01/13 13:29:08;;;;;;;7.53;5.20;;;;;;;;;;776185;180;917654;-71
2024/01/13 13:31:34;;;;;;;6.70;5.17;;;;;;;;;;774057;179;917906;-71
2024/01/13 13:34:00;;;;;;;8.67;4.80;;;;;;;;;;770393;179;918285;-71
2024/01/13 13:36:26;;;;;;;6.63;4.70;;;;;;;;;;772384;180;1017844;-70
2024/01/13 13:38:52;;;;;;;6.17;3.53;;;;;;;;;;779266;179;917342;-71
2024/01/13 13:41:18;;;;;;;6.90;4.90;;;;;;;;;;772968;180;919993;-70
2024/01/13 13:43:43;;;;;;;7.67;4.17;;;;;;;;;;769298;180;990693;-70
2024/01/13 13:46:09;;;;;;;7.37;5.10;;;;;;;;;;778626;179;915084;-71
2024/01/13 13:48:36;;;;;;;5.30;4.60;;;;;;;;;;775486;179;919224;-71
2024/01/13 13:51:01;;;;;;;4.93;4.30;;;;;;;;;;772666;179;918357;-71
2024/01/13 13:53:27;;;;;;;6.50;4.50;;;;;;;;;;775690;179;1021475;-70
2024/01/13 13:55:53;;;;;;;7.20;4.37;;;;;;;;;;770124;180;919075;-70
2024/01/13 13:58:19;;;;;;;7.40;4.90;;;;;;;;;;765418;179;919031;-71
2024/01/13 14:00:45;;;;;;;7.83;4.03;;;;;;;;;;773118;180;918930;-71
2024/01/13 14:03:10;;;;;;;6.63;4.53;;;;;;;;;;768466;179;918257;-71
2024/01/13 14:05:36;;;;;;;7.20;4.03;;;;;;;;;;777036;179;848873;-70
2024/01/13 14:08:02;;;;;;;7.10;4.97;;;;;;;;;;779003;179;637469;-70
2024/01/13 14:10:28;;;;;;;6.63;4.50;;;;;;;;;;784456;179;629640;-71
2024/01/13 14:12:54;;;;;;;8.97;5.83;;;;;;;;;;777875;180;638808;-71